sensor_id;sensor_type;location;lat;lon;timestamp;P1;durP1;ratioP1;P2;durP2;ratioP2
14799;SDS011;7491;57.750;11.970;2023-09-18T00:01:13;5.15;;;4.47;;
14799;SDS011;7491;57.750;11.970;2023-09-18T00:03:40;7.10;;;4.70;;
14799;SDS011;7491;57.750;11.970;2023-09-18T00:06:07;4.88;;;4.20;;
14799;SDS011;7491;57.750;11.970;2023-09-18T00:08:36;7.05;;;4.18;;
14799;SDS011;7491;57.750;11.970;2023-09-18T00:11:05;4.88;;;3.80;;
14799;SDS011;7491;57.750;11.970;2023-09-18T00:13:32;5.35;;;4.32;;
14799;SDS011;7491;57.750;11.970;2023-09-18T00:15:59;7.15;;;3.97;;
14799;SDS011;7491;57.750;11.970;2023-09-18T00:18:27;4.97;;;3.80;;
14799;SDS011;7491;57.750;11.970;2023-09-18T00:20:54;5.03;;;4.15;;
14799;SDS011;7491;57.750;11.970;2023-09-18T00:23:21;8.75;;;3.85;;
14799;SDS011;7491;57.750;11.970;2023-09-18T00:25:47;4.40;;;3.90;;
14799;SDS011;7491;57.750;11.970;2023-09-18T00:28:14;5.00;;;4.10;;
14799;SDS011;7491;57.750;11.970;2023-09-18T00:30:42;6.60;;;3.90;;
14799;SDS011;7491;57.750;11.970;2023-09-18T00:33:13;5.60;;;4.28;;
14799;SDS011;7491;57.750;11.970;2023-09-18T00:35:41;5.30;;;3.88;;
14799;SDS011;7491;57.750;11.970;2023-09-18T00:38:11;4.85;;;4.00;;
14799;SDS011;7491;57.750;11.970;2023-09-18T00:40:38;5.80;;;3.90;;
14799;SDS011;7491;57.750;11.970;2023-09-18T00:43:05;4.72;;;4.18;;
14799;SDS011;7491;57.750;11.970;2023-09-18T00:45:31;4.22;;;3.83;;
14799;SDS011;7491;57.750;11.970;2023-09-18T00:47:58;5.70;;;4.03;;
14799;SDS011;7491;57.750;11.970;2023-09-18T00:50:25;3.83;;;3.53;;
14799;SDS011;7491;57.750;11.970;2023-09-18T00:52:54;4.10;;;3.70;;
14799;SDS011;7491;57.750;11.970;2023-09-18T00:55:21;5.35;;;4.00;;
14799;SDS011;7491;57.750;11.970;2023-09-18T00:57:47;4.10;;;3.78;;
14799;SDS011;7491;57.750;11.970;2023-09-18T01:00:14;5.88;;;3.85;;
14799;SDS011;7491;57.750;11.970;2023-09-18T01:02:41;4.78;;;3.53;;
14799;SDS011;7491;57.750;11.970;2023-09-18T01:05:10;4.13;;;3.70;;
14799;SDS011;7491;57.750;11.970;2023-09-18T01:07:37;5.72;;;3.60;;
14799;SDS011;7491;57.750;11.970;2023-09-18T01:10:05;4.60;;;4.07;;
14799;SDS011;7491;57.750;11.970;2023-09-18T01:12:36;4.13;;;3.70;;
14799;SDS011;7491;57.750;11.970;2023-09-18T01:15:12;4.20;;;3.80;;
14799;SDS011;7491;57.750;11.970;2023-09-18T01:17:43;6.13;;;4.17;;
14799;SDS011;7491;57.750;11.970;2023-09-18T01:20:11;4.15;;;3.75;;
14799;SDS011;7491;57.750;11.970;2023-09-18T01:22:40;4.43;;;3.50;;
14799;SDS011;7491;57.750;11.970;2023-09-18T01:25:06;4.38;;;3.47;;
14799;SDS011;7491;57.750;11.970;2023-09-18T01:27:33;4.40;;;3.67;;
14799;SDS011;7491;57.750;11.970;2023-09-18T01:30:00;5.47;;;3.40;;
14799;SDS011;7491;57.750;11.970;2023-09-18T01:32:28;4.35;;;3.33;;
14799;SDS011;7491;57.750;11.970;2023-09-18T01:34:59;3.55;;;3.20;;
14799;SDS011;7491;57.750;11.970;2023-09-18T01:37:27;3.85;;;2.92;;
14799;SDS011;7491;57.750;11.970;2023-09-18T01:39:58;3.40;;;3.10;;
14799;SDS011;7491;57.750;11.970;2023-09-18T01:42:25;3.92;;;2.92;;
14799;SDS011;7491;57.750;11.970;2023-09-18T01:44:53;3.97;;;2.90;;
14799;SDS011;7491;57.750;11.970;2023-09-18T01:47:21;3.60;;;3.17;;
14799;SDS011;7491;57.750;11.970;2023-09-18T01:49:49;5.45;;;3.20;;
14799;SDS011;7491;57.750;11.970;2023-09-18T01:52:16;4.35;;;3.22;;
14799;SDS011;7491;57.750;11.970;2023-09-18T01:54:43;4.80;;;3.00;;
14799;SDS011;7491;57.750;11.970;2023-09-18T01:57:11;5.43;;;3.40;;
14799;SDS011;7491;57.750;11.970;2023-09-18T01:59:38;3.58;;;3.25;;
14799;SDS011;7491;57.750;11.970;2023-09-18T02:02:07;3.35;;;2.80;;
14799;SDS011;7491;57.750;11.970;2023-09-18T02:04:34;3.60;;;3.30;;
14799;SDS011;7491;57.750;11.970;2023-09-18T02:07:02;3.67;;;3.10;;
14799;SDS011;7491;57.750;11.970;2023-09-18T02:09:29;3.20;;;3.00;;
14799;SDS011;7491;57.750;11.970;2023-09-18T02:11:56;6.53;;;3.58;;
14799;SDS011;7491;57.750;11.970;2023-09-18T02:14:24;3.28;;;2.97;;
14799;SDS011;7491;57.750;11.970;2023-09-18T02:16:51;3.83;;;3.33;;
14799;SDS011;7491;57.750;11.970;2023-09-18T02:19:19;3.55;;;3.13;;
14799;SDS011;7491;57.750;11.970;2023-09-18T02:21:45;4.70;;;3.30;;
14799;SDS011;7491;57.750;11.970;2023-09-18T02:24:12;5.28;;;3.30;;
14799;SDS011;7491;57.750;11.970;2023-09-18T02:26:39;3.00;;;2.70;;
14799;SDS011;7491;57.750;11.970;2023-09-18T02:29:07;3.40;;;2.92;;
14799;SDS011;7491;57.750;11.970;2023-09-18T02:31:37;5.68;;;3.30;;
14799;SDS011;7491;57.750;11.970;2023-09-18T02:34:04;3.60;;;3.30;;
14799;SDS011;7491;57.750;11.970;2023-09-18T02:36:32;3.80;;;2.97;;
14799;SDS011;7491;57.750;11.970;2023-09-18T02:38:59;3.53;;;3.10;;
14799;SDS011;7491;57.750;11.970;2023-09-18T02:41:26;3.45;;;3.15;;
14799;SDS011;7491;57.750;11.970;2023-09-18T02:43:52;3.53;;;3.22;;
14799;SDS011;7491;57.750;11.970;2023-09-18T02:46:19;3.70;;;3.20;;
14799;SDS011;7491;57.750;11.970;2023-09-18T02:48:47;3.10;;;2.80;;
14799;SDS011;7491;57.750;11.970;2023-09-18T02:51:14;3.13;;;2.83;;
14799;SDS011;7491;57.750;11.970;2023-09-18T02:53:40;4.05;;;2.60;;
14799;SDS011;7491;57.750;11.970;2023-09-18T02:56:07;3.58;;;2.78;;
14799;SDS011;7491;57.750;11.970;2023-09-18T02:58:34;3.33;;;2.97;;
14799;SDS011;7491;57.750;11.970;2023-09-18T03:01:01;4.18;;;3.00;;
14799;SDS011;7491;57.750;11.970;2023-09-18T03:03:30;6.53;;;3.03;;
14799;SDS011;7491;57.750;11.970;2023-09-18T03:06:02;3.42;;;3.13;;
14799;SDS011;7491;57.750;11.970;2023-09-18T03:08:30;4.25;;;3.25;;
14799;SDS011;7491;57.750;11.970;2023-09-18T03:10:57;2.75;;;2.55;;
14799;SDS011;7491;57.750;11.970;2023-09-18T03:13:25;4.60;;;2.95;;
14799;SDS011;7491;57.750;11.970;2023-09-18T03:15:53;3.00;;;2.70;;
14799;SDS011;7491;57.750;11.970;2023-09-18T03:18:19;3.08;;;2.72;;
14799;SDS011;7491;57.750;11.970;2023-09-18T03:20:46;4.80;;;2.97;;
14799;SDS011;7491;57.750;11.970;2023-09-18T03:23:14;7.18;;;3.15;;
14799;SDS011;7491;57.750;11.970;2023-09-18T03:25:41;3.17;;;2.83;;
14799;SDS011;7491;57.750;11.970;2023-09-18T03:28:08;3.47;;;2.83;;
14799;SDS011;7491;57.750;11.970;2023-09-18T03:30:35;3.38;;;3.08;;
14799;SDS011;7491;57.750;11.970;2023-09-18T03:33:01;2.97;;;2.72;;
14799;SDS011;7491;57.750;11.970;2023-09-18T03:35:30;6.13;;;3.30;;
14799;SDS011;7491;57.750;11.970;2023-09-18T03:37:57;4.00;;;2.85;;
14799;SDS011;7491;57.750;11.970;2023-09-18T03:40:25;2.95;;;2.70;;
14799;SDS011;7491;57.750;11.970;2023-09-18T03:42:52;3.92;;;3.20;;
14799;SDS011;7491;57.750;11.970;2023-09-18T03:45:19;6.00;;;3.03;;
14799;SDS011;7491;57.750;11.970;2023-09-18T03:47:46;4.63;;;2.80;;
14799;SDS011;7491;57.750;11.970;2023-09-18T03:50:15;4.18;;;2.78;;
14799;SDS011;7491;57.750;11.970;2023-09-18T03:52:41;4.40;;;2.70;;
14799;SDS011;7491;57.750;11.970;2023-09-18T03:55:08;4.05;;;3.25;;
14799;SDS011;7491;57.750;11.970;2023-09-18T03:57:38;4.00;;;3.03;;
14799;SDS011;7491;57.750;11.970;2023-09-18T04:00:05;4.57;;;3.20;;
14799;SDS011;7491;57.750;11.970;2023-09-18T04:02:33;7.68;;;3.30;;
14799;SDS011;7491;57.750;11.970;2023-09-18T04:05:00;6.28;;;2.55;;
14799;SDS011;7491;57.750;11.970;2023-09-18T04:07:27;5.50;;;2.80;;
14799;SDS011;7491;57.750;11.970;2023-09-18T04:09:53;5.18;;;2.80;;
14799;SDS011;7491;57.750;11.970;2023-09-18T04:12:21;4.82;;;2.80;;
14799;SDS011;7491;57.750;11.970;2023-09-18T04:14:49;4.78;;;2.70;;
14799;SDS011;7491;57.750;11.970;2023-09-18T04:17:16;3.63;;;2.65;;
14799;SDS011;7491;57.750;11.970;2023-09-18T04:19:43;6.55;;;3.33;;
14799;SDS011;7491;57.750;11.970;2023-09-18T04:22:10;5.35;;;2.78;;
14799;SDS011;7491;57.750;11.970;2023-09-18T04:24:36;4.65;;;2.60;;
14799;SDS011;7491;57.750;11.970;2023-09-18T04:27:03;2.42;;;2.22;;
14799;SDS011;7491;57.750;11.970;2023-09-18T04:29:30;4.70;;;2.70;;
14799;SDS011;7491;57.750;11.970;2023-09-18T04:31:58;5.57;;;2.67;;
14799;SDS011;7491;57.750;11.970;2023-09-18T04:34:25;5.15;;;2.53;;
14799;SDS011;7491;57.750;11.970;2023-09-18T04:36:52;5.90;;;2.80;;
14799;SDS011;7491;57.750;11.970;2023-09-18T04:39:18;6.22;;;2.63;;
14799;SDS011;7491;57.750;11.970;2023-09-18T04:41:46;3.65;;;2.72;;
14799;SDS011;7491;57.750;11.970;2023-09-18T04:44:13;3.03;;;2.70;;
14799;SDS011;7491;57.750;11.970;2023-09-18T04:46:39;4.32;;;2.65;;
14799;SDS011;7491;57.750;11.970;2023-09-18T04:49:09;3.42;;;2.60;;
14799;SDS011;7491;57.750;11.970;2023-09-18T04:51:37;3.45;;;2.67;;
14799;SDS011;7491;57.750;11.970;2023-09-18T04:54:04;5.68;;;2.53;;
14799;SDS011;7491;57.750;11.970;2023-09-18T04:56:31;6.43;;;2.90;;
14799;SDS011;7491;57.750;11.970;2023-09-18T04:58:58;5.38;;;2.88;;
14799;SDS011;7491;57.750;11.970;2023-09-18T05:01:25;4.05;;;2.40;;
14799;SDS011;7491;57.750;11.970;2023-09-18T05:03:52;3.65;;;2.45;;
14799;SDS011;7491;57.750;11.970;2023-09-18T05:06:20;2.97;;;2.15;;
14799;SDS011;7491;57.750;11.970;2023-09-18T05:08:46;7.15;;;2.85;;
14799;SDS011;7491;57.750;11.970;2023-09-18T05:11:13;3.83;;;2.88;;
14799;SDS011;7491;57.750;11.970;2023-09-18T05:13:40;6.00;;;2.80;;
14799;SDS011;7491;57.750;11.970;2023-09-18T05:16:07;5.10;;;2.45;;
14799;SDS011;7491;57.750;11.970;2023-09-18T05:18:33;3.30;;;2.55;;
14799;SDS011;7491;57.750;11.970;2023-09-18T05:21:00;3.83;;;2.63;;
14799;SDS011;7491;57.750;11.970;2023-09-18T05:23:31;8.25;;;2.50;;
14799;SDS011;7491;57.750;11.970;2023-09-18T05:25:58;7.03;;;2.55;;
14799;SDS011;7491;57.750;11.970;2023-09-18T05:28:25;5.05;;;2.78;;
14799;SDS011;7491;57.750;11.970;2023-09-18T05:30:52;4.53;;;2.40;;
14799;SDS011;7491;57.750;11.970;2023-09-18T05:33:20;3.42;;;2.50;;
14799;SDS011;7491;57.750;11.970;2023-09-18T05:35:46;5.13;;;2.28;;
14799;SDS011;7491;57.750;11.970;2023-09-18T05:38:14;2.63;;;2.42;;
14799;SDS011;7491;57.750;11.970;2023-09-18T05:40:44;4.18;;;2.58;;
14799;SDS011;7491;57.750;11.970;2023-09-18T05:43:11;7.20;;;2.33;;
14799;SDS011;7491;57.750;11.970;2023-09-18T05:45:38;4.45;;;2.70;;
14799;SDS011;7491;57.750;11.970;2023-09-18T05:48:08;3.40;;;2.35;;
14799;SDS011;7491;57.750;11.970;2023-09-18T05:50:35;2.72;;;2.10;;
14799;SDS011;7491;57.750;11.970;2023-09-18T05:53:02;3.88;;;2.90;;
14799;SDS011;7491;57.750;11.970;2023-09-18T05:55:30;2.60;;;2.40;;
14799;SDS011;7491;57.750;11.970;2023-09-18T05:57:59;3.30;;;2.47;;
14799;SDS011;7491;57.750;11.970;2023-09-18T06:00:26;3.25;;;2.53;;
14799;SDS011;7491;57.750;11.970;2023-09-18T06:02:55;4.82;;;2.55;;
14799;SDS011;7491;57.750;11.970;2023-09-18T06:05:23;3.80;;;2.25;;
14799;SDS011;7491;57.750;11.970;2023-09-18T06:07:51;2.47;;;2.25;;
14799;SDS011;7491;57.750;11.970;2023-09-18T06:10:18;5.90;;;2.35;;
14799;SDS011;7491;57.750;11.970;2023-09-18T06:12:45;3.95;;;2.40;;
14799;SDS011;7491;57.750;11.970;2023-09-18T06:15:13;3.13;;;2.30;;
14799;SDS011;7491;57.750;11.970;2023-09-18T06:17:41;4.28;;;2.42;;
14799;SDS011;7491;57.750;11.970;2023-09-18T06:20:09;2.67;;;2.47;;
14799;SDS011;7491;57.750;11.970;2023-09-18T06:22:37;3.83;;;2.25;;
14799;SDS011;7491;57.750;11.970;2023-09-18T06:25:05;5.15;;;2.30;;
14799;SDS011;7491;57.750;11.970;2023-09-18T06:27:33;7.43;;;2.38;;
14799;SDS011;7491;57.750;11.970;2023-09-18T06:30:01;3.25;;;2.33;;
14799;SDS011;7491;57.750;11.970;2023-09-18T06:32:31;3.92;;;2.70;;
14799;SDS011;7491;57.750;11.970;2023-09-18T06:34:58;3.08;;;2.13;;
14799;SDS011;7491;57.750;11.970;2023-09-18T06:37:24;7.03;;;2.17;;
14799;SDS011;7491;57.750;11.970;2023-09-18T06:39:51;5.72;;;2.45;;
14799;SDS011;7491;57.750;11.970;2023-09-18T06:42:18;5.05;;;2.30;;
14799;SDS011;7491;57.750;11.970;2023-09-18T06:44:45;5.35;;;2.33;;
14799;SDS011;7491;57.750;11.970;2023-09-18T06:47:12;4.68;;;2.13;;
14799;SDS011;7491;57.750;11.970;2023-09-18T06:49:41;4.00;;;2.10;;
14799;SDS011;7491;57.750;11.970;2023-09-18T06:52:08;5.28;;;2.45;;
14799;SDS011;7491;57.750;11.970;2023-09-18T06:54:35;3.58;;;2.15;;
14799;SDS011;7491;57.750;11.970;2023-09-18T06:57:03;3.78;;;2.30;;
14799;SDS011;7491;57.750;11.970;2023-09-18T06:59:30;3.58;;;2.28;;
14799;SDS011;7491;57.750;11.970;2023-09-18T07:01:58;4.18;;;2.20;;
14799;SDS011;7491;57.750;11.970;2023-09-18T07:04:26;3.97;;;2.10;;
14799;SDS011;7491;57.750;11.970;2023-09-18T07:06:54;3.28;;;2.00;;
14799;SDS011;7491;57.750;11.970;2023-09-18T07:09:21;4.28;;;2.17;;
14799;SDS011;7491;57.750;11.970;2023-09-18T07:11:51;4.78;;;2.28;;
14799;SDS011;7491;57.750;11.970;2023-09-18T07:14:18;2.53;;;2.33;;
14799;SDS011;7491;57.750;11.970;2023-09-18T07:16:44;5.47;;;2.20;;
14799;SDS011;7491;57.750;11.970;2023-09-18T07:19:11;1.85;;;1.70;;
14799;SDS011;7491;57.750;11.970;2023-09-18T07:21:41;4.65;;;2.10;;
14799;SDS011;7491;57.750;11.970;2023-09-18T07:24:10;3.88;;;2.10;;
14799;SDS011;7491;57.750;11.970;2023-09-18T07:26:43;3.45;;;1.95;;
14799;SDS011;7491;57.750;11.970;2023-09-18T07:29:11;2.28;;;1.70;;
14799;SDS011;7491;57.750;11.970;2023-09-18T07:31:38;5.13;;;2.10;;
14799;SDS011;7491;57.750;11.970;2023-09-18T07:34:06;4.88;;;2.38;;
14799;SDS011;7491;57.750;11.970;2023-09-18T07:36:33;2.72;;;1.80;;
14799;SDS011;7491;57.750;11.970;2023-09-18T07:39:00;3.47;;;1.90;;
14799;SDS011;7491;57.750;11.970;2023-09-18T07:41:29;6.15;;;2.17;;
14799;SDS011;7491;57.750;11.970;2023-09-18T07:43:56;3.30;;;2.13;;
14799;SDS011;7491;57.750;11.970;2023-09-18T07:46:24;2.35;;;2.10;;
14799;SDS011;7491;57.750;11.970;2023-09-18T07:48:51;5.93;;;1.98;;
14799;SDS011;7491;57.750;11.970;2023-09-18T07:51:17;3.80;;;2.28;;
14799;SDS011;7491;57.750;11.970;2023-09-18T07:53:44;3.42;;;1.90;;
14799;SDS011;7491;57.750;11.970;2023-09-18T07:56:11;3.42;;;1.80;;
14799;SDS011;7491;57.750;11.970;2023-09-18T07:58:40;4.68;;;2.50;;
14799;SDS011;7491;57.750;11.970;2023-09-18T08:01:07;4.05;;;1.73;;
14799;SDS011;7491;57.750;11.970;2023-09-18T08:03:35;2.90;;;2.10;;
14799;SDS011;7491;57.750;11.970;2023-09-18T08:06:02;4.50;;;2.38;;
14799;SDS011;7491;57.750;11.970;2023-09-18T08:08:29;2.35;;;1.98;;
14799;SDS011;7491;57.750;11.970;2023-09-18T08:10:58;2.13;;;1.85;;
14799;SDS011;7491;57.750;11.970;2023-09-18T08:13:28;6.32;;;1.88;;
14799;SDS011;7491;57.750;11.970;2023-09-18T08:15:56;2.45;;;2.05;;
14799;SDS011;7491;57.750;11.970;2023-09-18T08:18:23;5.80;;;1.98;;
14799;SDS011;7491;57.750;11.970;2023-09-18T08:20:52;2.85;;;1.67;;
14799;SDS011;7491;57.750;11.970;2023-09-18T08:23:22;3.17;;;2.17;;
14799;SDS011;7491;57.750;11.970;2023-09-18T08:25:49;2.53;;;1.88;;
14799;SDS011;7491;57.750;11.970;2023-09-18T08:28:20;3.05;;;2.10;;
14799;SDS011;7491;57.750;11.970;2023-09-18T08:30:47;2.78;;;2.10;;
14799;SDS011;7491;57.750;11.970;2023-09-18T08:33:15;4.97;;;2.25;;
14799;SDS011;7491;57.750;11.970;2023-09-18T08:35:42;2.92;;;2.20;;
14799;SDS011;7491;57.750;11.970;2023-09-18T08:38:09;3.20;;;2.13;;
14799;SDS011;7491;57.750;11.970;2023-09-18T08:40:36;2.25;;;2.05;;
14799;SDS011;7491;57.750;11.970;2023-09-18T08:43:03;4.50;;;2.22;;
14799;SDS011;7491;57.750;11.970;2023-09-18T08:45:31;3.50;;;1.95;;
14799;SDS011;7491;57.750;11.970;2023-09-18T08:48:02;2.47;;;2.03;;
14799;SDS011;7491;57.750;11.970;2023-09-18T08:50:31;2.95;;;2.08;;
14799;SDS011;7491;57.750;11.970;2023-09-18T08:52:59;4.22;;;2.30;;
14799;SDS011;7491;57.750;11.970;2023-09-18T08:55:26;3.83;;;2.55;;
14799;SDS011;7491;57.750;11.970;2023-09-18T08:57:55;4.20;;;2.42;;
14799;SDS011;7491;57.750;11.970;2023-09-18T09:00:24;3.63;;;2.15;;
14799;SDS011;7491;57.750;11.970;2023-09-18T09:02:51;4.20;;;2.10;;
14799;SDS011;7491;57.750;11.970;2023-09-18T09:05:19;5.72;;;2.50;;
14799;SDS011;7491;57.750;11.970;2023-09-18T09:07:48;4.25;;;2.30;;
14799;SDS011;7491;57.750;11.970;2023-09-18T09:10:15;3.55;;;2.20;;
14799;SDS011;7491;57.750;11.970;2023-09-18T09:12:50;5.18;;;2.83;;
14799;SDS011;7491;57.750;11.970;2023-09-18T09:15:19;3.28;;;2.30;;
14799;SDS011;7491;57.750;11.970;2023-09-18T09:17:47;3.20;;;2.42;;
14799;SDS011;7491;57.750;11.970;2023-09-18T09:20:14;4.10;;;2.28;;
14799;SDS011;7491;57.750;11.970;2023-09-18T09:22:42;4.00;;;2.53;;
14799;SDS011;7491;57.750;11.970;2023-09-18T09:27:56;5.47;;;2.85;;
14799;SDS011;7491;57.750;11.970;2023-09-18T09:30:24;4.20;;;2.85;;
14799;SDS011;7491;57.750;11.970;2023-09-18T09:32:52;4.00;;;2.92;;
14799;SDS011;7491;57.750;11.970;2023-09-18T09:35:23;4.63;;;3.20;;
14799;SDS011;7491;57.750;11.970;2023-09-18T09:37:53;5.15;;;3.50;;
14799;SDS011;7491;57.750;11.970;2023-09-18T09:40:23;4.47;;;3.65;;
14799;SDS011;7491;57.750;11.970;2023-09-18T09:42:53;6.35;;;3.33;;
14799;SDS011;7491;57.750;11.970;2023-09-18T09:45:26;4.00;;;3.10;;
14799;SDS011;7491;57.750;11.970;2023-09-18T09:47:54;3.80;;;3.45;;
14799;SDS011;7491;57.750;11.970;2023-09-18T09:50:22;3.97;;;3.38;;
14799;SDS011;7491;57.750;11.970;2023-09-18T09:52:51;5.40;;;3.60;;
14799;SDS011;7491;57.750;11.970;2023-09-18T09:55:23;5.80;;;4.07;;
14799;SDS011;7491;57.750;11.970;2023-09-18T09:57:53;3.70;;;3.40;;
14799;SDS011;7491;57.750;11.970;2023-09-18T10:00:23;4.40;;;4.00;;
14799;SDS011;7491;57.750;11.970;2023-09-18T10:02:57;4.53;;;3.80;;
14799;SDS011;7491;57.750;11.970;2023-09-18T10:05:29;6.22;;;3.47;;
14799;SDS011;7491;57.750;11.970;2023-09-18T10:07:58;6.40;;;3.67;;
14799;SDS011;7491;57.750;11.970;2023-09-18T10:10:28;4.38;;;3.92;;
14799;SDS011;7491;57.750;11.970;2023-09-18T10:13:00;5.72;;;3.90;;
14799;SDS011;7491;57.750;11.970;2023-09-18T10:15:33;4.13;;;3.67;;
14799;SDS011;7491;57.750;11.970;2023-09-18T10:18:04;5.30;;;3.53;;
14799;SDS011;7491;57.750;11.970;2023-09-18T10:20:36;5.30;;;4.18;;
14799;SDS011;7491;57.750;11.970;2023-09-18T10:23:09;5.00;;;3.70;;
14799;SDS011;7491;57.750;11.970;2023-09-18T10:25:48;4.40;;;3.83;;
14799;SDS011;7491;57.750;11.970;2023-09-18T10:28:17;4.63;;;4.00;;
14799;SDS011;7491;57.750;11.970;2023-09-18T10:30:46;5.03;;;4.25;;
14799;SDS011;7491;57.750;11.970;2023-09-18T10:33:16;4.00;;;3.60;;
14799;SDS011;7491;57.750;11.970;2023-09-18T10:35:43;5.22;;;4.03;;
14799;SDS011;7491;57.750;11.970;2023-09-18T10:38:13;5.32;;;4.57;;
14799;SDS011;7491;57.750;11.970;2023-09-18T10:40:42;5.30;;;4.38;;
14799;SDS011;7491;57.750;11.970;2023-09-18T10:43:09;5.25;;;4.45;;
14799;SDS011;7491;57.750;11.970;2023-09-18T10:45:39;4.95;;;4.45;;
14799;SDS011;7491;57.750;11.970;2023-09-18T10:48:07;5.45;;;4.10;;
14799;SDS011;7491;57.750;11.970;2023-09-18T10:50:35;6.70;;;4.28;;
14799;SDS011;7491;57.750;11.970;2023-09-18T10:53:04;8.82;;;4.88;;
14799;SDS011;7491;57.750;11.970;2023-09-18T10:55:31;6.55;;;4.55;;
14799;SDS011;7491;57.750;11.970;2023-09-18T10:58:00;4.68;;;4.10;;
14799;SDS011;7491;57.750;11.970;2023-09-18T11:00:28;5.45;;;4.47;;
14799;SDS011;7491;57.750;11.970;2023-09-18T11:03:10;5.88;;;4.60;;
14799;SDS011;7491;57.750;11.970;2023-09-18T11:05:43;4.85;;;4.15;;
14799;SDS011;7491;57.750;11.970;2023-09-18T11:08:29;6.15;;;4.53;;
14799;SDS011;7491;57.750;11.970;2023-09-18T11:10:59;8.52;;;4.85;;
14799;SDS011;7491;57.750;11.970;2023-09-18T11:13:36;4.90;;;4.50;;
14799;SDS011;7491;57.750;11.970;2023-09-18T11:16:16;5.43;;;4.65;;
14799;SDS011;7491;57.750;11.970;2023-09-18T11:18:51;4.65;;;3.95;;
14799;SDS011;7491;57.750;11.970;2023-09-18T11:21:23;6.18;;;4.25;;
14799;SDS011;7491;57.750;11.970;2023-09-18T11:23:57;6.85;;;4.35;;
14799;SDS011;7491;57.750;11.970;2023-09-18T11:26:27;7.03;;;4.20;;
14799;SDS011;7491;57.750;11.970;2023-09-18T11:28:55;5.47;;;3.80;;
14799;SDS011;7491;57.750;11.970;2023-09-18T11:34:12;6.00;;;4.32;;
14799;SDS011;7491;57.750;11.970;2023-09-18T11:36:40;5.85;;;4.38;;
14799;SDS011;7491;57.750;11.970;2023-09-18T11:39:07;6.93;;;4.78;;
14799;SDS011;7491;57.750;11.970;2023-09-18T11:41:36;4.50;;;4.10;;
14799;SDS011;7491;57.750;11.970;2023-09-18T11:47:01;7.45;;;4.90;;
14799;SDS011;7491;57.750;11.970;2023-09-18T11:49:30;6.40;;;5.20;;
14799;SDS011;7491;57.750;11.970;2023-09-18T11:52:01;7.93;;;5.25;;
14799;SDS011;7491;57.750;11.970;2023-09-18T11:54:29;5.68;;;4.53;;
14799;SDS011;7491;57.750;11.970;2023-09-18T11:56:56;6.88;;;4.47;;
14799;SDS011;7491;57.750;11.970;2023-09-18T11:59:33;7.32;;;5.30;;
14799;SDS011;7491;57.750;11.970;2023-09-18T12:02:01;7.05;;;5.03;;
14799;SDS011;7491;57.750;11.970;2023-09-18T12:04:32;5.85;;;5.25;;
14799;SDS011;7491;57.750;11.970;2023-09-18T12:06:59;6.57;;;5.13;;
14799;SDS011;7491;57.750;11.970;2023-09-18T12:09:28;7.45;;;5.13;;
14799;SDS011;7491;57.750;11.970;2023-09-18T12:11:56;6.68;;;5.53;;
14799;SDS011;7491;57.750;11.970;2023-09-18T12:14:23;7.05;;;5.40;;
14799;SDS011;7491;57.750;11.970;2023-09-18T12:16:50;8.82;;;5.20;;
14799;SDS011;7491;57.750;11.970;2023-09-18T12:19:17;6.78;;;5.80;;
14799;SDS011;7491;57.750;11.970;2023-09-18T12:21:47;6.55;;;5.50;;
14799;SDS011;7491;57.750;11.970;2023-09-18T12:24:14;7.63;;;5.03;;
14799;SDS011;7491;57.750;11.970;2023-09-18T12:26:41;8.40;;;5.78;;
14799;SDS011;7491;57.750;11.970;2023-09-18T12:29:08;7.45;;;5.88;;
14799;SDS011;7491;57.750;11.970;2023-09-18T12:31:37;7.72;;;5.88;;
14799;SDS011;7491;57.750;11.970;2023-09-18T12:34:04;7.22;;;6.53;;
14799;SDS011;7491;57.750;11.970;2023-09-18T12:36:32;6.97;;;5.65;;
14799;SDS011;7491;57.750;11.970;2023-09-18T12:39:02;9.05;;;6.10;;
14799;SDS011;7491;57.750;11.970;2023-09-18T12:41:29;6.82;;;6.00;;
14799;SDS011;7491;57.750;11.970;2023-09-18T12:43:57;9.05;;;6.47;;
14799;SDS011;7491;57.750;11.970;2023-09-18T12:46:24;9.27;;;6.68;;
14799;SDS011;7491;57.750;11.970;2023-09-18T12:48:51;8.52;;;6.45;;
14799;SDS011;7491;57.750;11.970;2023-09-18T12:51:18;8.75;;;7.05;;
14799;SDS011;7491;57.750;11.970;2023-09-18T12:53:59;9.45;;;6.40;;
14799;SDS011;7491;57.750;11.970;2023-09-18T12:56:33;7.10;;;6.40;;
14799;SDS011;7491;57.750;11.970;2023-09-18T12:59:05;8.35;;;7.30;;
14799;SDS011;7491;57.750;11.970;2023-09-18T13:01:32;8.75;;;7.28;;
14799;SDS011;7491;57.750;11.970;2023-09-18T13:03:59;13.48;;;7.35;;
14799;SDS011;7491;57.750;11.970;2023-09-18T13:06:30;9.77;;;7.57;;
14799;SDS011;7491;57.750;11.970;2023-09-18T13:11:54;9.77;;;7.32;;
14799;SDS011;7491;57.750;11.970;2023-09-18T13:14:22;8.43;;;7.43;;
14799;SDS011;7491;57.750;11.970;2023-09-18T13:16:48;8.45;;;7.55;;
14799;SDS011;7491;57.750;11.970;2023-09-18T13:19:16;7.35;;;6.70;;
14799;SDS011;7491;57.750;11.970;2023-09-18T13:21:47;7.53;;;6.68;;
14799;SDS011;7491;57.750;11.970;2023-09-18T13:24:24;9.20;;;7.63;;
14799;SDS011;7491;57.750;11.970;2023-09-18T13:26:56;8.27;;;7.47;;
14799;SDS011;7491;57.750;11.970;2023-09-18T13:29:24;8.95;;;7.18;;
14799;SDS011;7491;57.750;11.970;2023-09-18T13:31:51;8.88;;;7.97;;
14799;SDS011;7491;57.750;11.970;2023-09-18T13:34:18;9.55;;;7.45;;
14799;SDS011;7491;57.750;11.970;2023-09-18T13:36:46;10.52;;;7.55;;
14799;SDS011;7491;57.750;11.970;2023-09-18T13:39:13;8.02;;;7.20;;
14799;SDS011;7491;57.750;11.970;2023-09-18T13:41:42;11.55;;;7.47;;
14799;SDS011;7491;57.750;11.970;2023-09-18T13:50:15;8.65;;;6.68;;
14799;SDS011;7491;57.750;11.970;2023-09-18T13:52:42;8.15;;;7.30;;
14799;SDS011;7491;57.750;11.970;2023-09-18T13:55:09;9.60;;;6.78;;
14799;SDS011;7491;57.750;11.970;2023-09-18T13:57:36;9.35;;;7.25;;
14799;SDS011;7491;57.750;11.970;2023-09-18T14:00:20;11.70;;;8.00;;
14799;SDS011;7491;57.750;11.970;2023-09-18T14:02:48;10.60;;;7.72;;
14799;SDS011;7491;57.750;11.970;2023-09-18T14:05:16;10.38;;;8.70;;
14799;SDS011;7491;57.750;11.970;2023-09-18T14:07:43;10.05;;;7.68;;
14799;SDS011;7491;57.750;11.970;2023-09-18T14:10:10;9.27;;;8.07;;
14799;SDS011;7491;57.750;11.970;2023-09-18T14:12:37;9.55;;;7.32;;
14799;SDS011;7491;57.750;11.970;2023-09-18T14:15:05;12.85;;;7.80;;
14799;SDS011;7491;57.750;11.970;2023-09-18T14:17:34;9.60;;;7.10;;
14799;SDS011;7491;57.750;11.970;2023-09-18T14:20:04;13.07;;;8.60;;
14799;SDS011;7491;57.750;11.970;2023-09-18T14:22:32;8.57;;;7.63;;
14799;SDS011;7491;57.750;11.970;2023-09-18T14:24:59;9.80;;;7.90;;
14799;SDS011;7491;57.750;11.970;2023-09-18T14:27:29;11.48;;;7.78;;
14799;SDS011;7491;57.750;11.970;2023-09-18T14:29:56;11.85;;;8.10;;
14799;SDS011;7491;57.750;11.970;2023-09-18T14:32:22;13.88;;;8.55;;
14799;SDS011;7491;57.750;11.970;2023-09-18T14:34:53;8.18;;;7.00;;
14799;SDS011;7491;57.750;11.970;2023-09-18T14:37:20;10.18;;;8.32;;
14799;SDS011;7491;57.750;11.970;2023-09-18T14:39:47;8.90;;;7.95;;
14799;SDS011;7491;57.750;11.970;2023-09-18T14:42:14;10.20;;;8.13;;
14799;SDS011;7491;57.750;11.970;2023-09-18T14:44:41;8.07;;;7.28;;
14799;SDS011;7491;57.750;11.970;2023-09-18T14:47:10;10.48;;;8.18;;
14799;SDS011;7491;57.750;11.970;2023-09-18T14:49:37;8.40;;;7.38;;
14799;SDS011;7491;57.750;11.970;2023-09-18T14:52:05;9.85;;;6.88;;
14799;SDS011;7491;57.750;11.970;2023-09-18T14:54:33;10.55;;;7.97;;
14799;SDS011;7491;57.750;11.970;2023-09-18T14:57:00;10.15;;;7.80;;
14799;SDS011;7491;57.750;11.970;2023-09-18T14:59:28;9.48;;;8.20;;
14799;SDS011;7491;57.750;11.970;2023-09-18T15:01:55;11.52;;;7.00;;
14799;SDS011;7491;57.750;11.970;2023-09-18T15:04:22;10.05;;;8.05;;
14799;SDS011;7491;57.750;11.970;2023-09-18T15:06:49;9.43;;;7.40;;
14799;SDS011;7491;57.750;11.970;2023-09-18T15:09:18;9.32;;;7.03;;
14799;SDS011;7491;57.750;11.970;2023-09-18T15:11:44;8.45;;;7.38;;